createdAt,value
2023-03-04T00:01:39.803Z,10.07
2023-03-04T00:04:06.636Z,8.63
2023-03-04T00:06:33.749Z,9.13
2023-03-04T00:09:00.582Z,8.20
2023-03-04T00:11:27.720Z,7.37
2023-03-04T00:13:55.762Z,8.50
2023-03-04T00:16:23.185Z,7.60
2023-03-04T00:18:51.365Z,8.57
2023-03-04T00:21:18.480Z,7.53
2023-03-04T00:23:45.347Z,8.07
2023-03-04T00:26:13.632Z,7.93
2023-03-04T00:28:40.776Z,8.40
2023-03-04T00:31:08.221Z,7.63
2023-03-04T00:33:35.886Z,8.17
2023-03-04T00:36:05.772Z,6.80
2023-03-04T00:38:32.976Z,6.53
2023-03-04T00:41:00.200Z,8.80
2023-03-04T00:43:26.971Z,8.30
2023-03-04T00:45:54.477Z,7.37
2023-03-04T00:48:21.379Z,7.07
2023-03-04T00:50:49.807Z,7.27
2023-03-04T00:53:18.026Z,6.50
2023-03-04T00:55:45.348Z,6.90
2023-03-04T00:58:12.304Z,7.37
2023-03-04T01:00:39.479Z,6.30
2023-03-04T01:03:06.331Z,6.70
2023-03-04T01:05:36.170Z,6.90
2023-03-04T01:08:03.148Z,6.30
2023-03-04T01:10:31.654Z,6.83
2023-03-04T01:12:58.922Z,6.80
2023-03-04T01:15:26.062Z,6.60
2023-03-04T01:17:53.249Z,6.77
2023-03-04T01:20:20.736Z,7.33
2023-03-04T01:22:47.544Z,6.37
2023-03-04T01:25:14.706Z,6.20
2023-03-04T01:27:42.819Z,5.93
2023-03-04T01:30:11.413Z,5.27
2023-03-04T01:32:38.269Z,6.40
2023-03-04T01:35:06.392Z,5.83
2023-03-04T01:37:33.343Z,6.10
2023-03-04T01:40:00.465Z,5.97
2023-03-04T01:42:29.828Z,6.00
2023-03-04T01:44:58.334Z,6.07
2023-03-04T01:47:28.862Z,6.57
2023-03-04T01:49:58.469Z,6.07
2023-03-04T01:52:27.137Z,6.57
2023-03-04T01:54:54.523Z,6.07
2023-03-04T01:57:24.221Z,6.67
2023-03-04T02:00:22.786Z,7.10
2023-03-04T02:02:52.714Z,6.00
2023-03-04T02:05:22.529Z,7.20
2023-03-04T02:07:51.080Z,6.53
2023-03-04T02:10:18.655Z,6.70
2023-03-04T02:12:45.908Z,6.10
2023-03-04T02:15:13.706Z,7.10
2023-03-04T02:17:42.052Z,6.10
2023-03-04T02:20:21.376Z,5.83
2023-03-04T02:22:57.243Z,5.23
2023-03-04T02:25:31.861Z,5.63
2023-03-04T02:28:00.129Z,5.40
2023-03-04T02:30:27.521Z,6.17
2023-03-04T02:32:54.464Z,5.77
2023-03-04T02:35:21.911Z,6.40
2023-03-04T02:37:48.837Z,5.47
2023-03-04T02:40:21.794Z,6.13
2023-03-04T02:42:48.573Z,6.23
2023-03-04T02:45:34.319Z,6.17
2023-03-04T02:48:01.092Z,6.13
2023-03-04T02:50:31.045Z,5.07
2023-03-04T02:52:57.826Z,6.40
2023-03-04T02:55:24.997Z,5.67
2023-03-04T02:57:51.806Z,5.40
2023-03-04T03:00:18.996Z,5.73
2023-03-04T03:02:47.129Z,5.33
2023-03-04T03:05:14.245Z,5.40
2023-03-04T03:07:41.043Z,5.03
2023-03-04T03:10:09.106Z,5.20
2023-03-04T03:12:35.898Z,5.90
2023-03-04T03:15:03.159Z,5.03
2023-03-04T03:17:30.005Z,5.20
2023-03-04T03:19:58.562Z,6.20
2023-03-04T03:22:25.487Z,5.43
2023-03-04T03:24:52.280Z,4.50
2023-03-04T03:27:19.072Z,4.90
2023-03-04T03:29:46.244Z,4.77
2023-03-04T03:32:13.010Z,5.60
2023-03-04T03:34:40.378Z,5.20
2023-03-04T03:37:08.487Z,4.60
2023-03-04T03:39:35.686Z,5.03
2023-03-04T03:42:02.985Z,4.47
2023-03-04T03:44:30.227Z,5.03
2023-03-04T03:46:57.693Z,4.17
2023-03-04T03:49:24.962Z,4.83
2023-03-04T03:51:51.802Z,4.27
2023-03-04T03:54:20.228Z,3.30
2023-03-04T03:56:48.048Z,4.10
2023-03-04T03:59:14.887Z,4.40
2023-03-04T04:01:41.745Z,4.37
2023-03-04T04:04:08.965Z,5.07
2023-03-04T04:06:35.796Z,4.20
2023-03-04T04:09:03.035Z,3.67
2023-03-04T04:11:31.181Z,4.23
2023-03-04T04:13:58.319Z,4.57
2023-03-04T04:16:25.188Z,4.90
2023-03-04T04:18:52.369Z,3.60
2023-03-04T04:21:19.193Z,4.37
2023-03-04T04:23:46.413Z,4.37
2023-03-04T04:26:13.247Z,3.97
2023-03-04T04:28:41.812Z,3.90
2023-03-04T04:31:09.618Z,3.80
2023-03-04T04:33:37.239Z,4.40
2023-03-04T04:36:05.105Z,3.10
2023-03-04T04:38:32.285Z,3.63
2023-03-04T04:40:59.890Z,5.03
2023-03-04T04:43:26.973Z,4.07
2023-03-04T04:45:55.169Z,3.50
2023-03-04T04:48:22.306Z,4.97
2023-03-04T04:50:54.661Z,4.00
2023-03-04T04:53:21.886Z,3.67
2023-03-04T04:55:48.698Z,3.17
2023-03-04T04:58:15.959Z,3.83
2023-03-04T05:00:42.742Z,4.40
2023-03-04T05:03:11.320Z,3.93
2023-03-04T05:05:38.102Z,4.07
2023-03-04T05:08:06.030Z,4.37
2023-03-04T05:10:32.881Z,3.20
2023-03-04T05:12:59.653Z,3.90
2023-03-04T05:15:26.786Z,3.87
2023-03-04T05:17:53.582Z,3.47
2023-03-04T05:20:23.782Z,3.97
2023-03-04T05:22:50.963Z,3.50
2023-03-04T05:25:18.382Z,3.07
2023-03-04T05:27:45.361Z,4.80
2023-03-04T05:30:13.443Z,4.63
2023-03-04T05:32:40.376Z,3.80
2023-03-04T05:35:08.223Z,4.43
2023-03-04T05:37:36.710Z,3.30
2023-03-04T05:40:05.038Z,3.37
2023-03-04T05:42:32.114Z,3.50
2023-03-04T05:44:58.880Z,3.57
2023-03-04T05:47:26.017Z,3.47
2023-03-04T05:49:53.051Z,3.37
2023-03-04T05:52:19.840Z,2.73
2023-03-04T05:54:48.467Z,3.83
2023-03-04T05:57:15.335Z,3.40
2023-03-04T05:59:42.440Z,4.00
2023-03-04T06:02:09.249Z,4.10
2023-03-04T06:04:36.193Z,4.13
2023-03-04T06:07:02.986Z,4.23
2023-03-04T06:09:30.120Z,4.13
2023-03-04T06:11:58.231Z,4.63
2023-03-04T06:14:25.478Z,4.83
2023-03-04T06:16:52.359Z,4.47
2023-03-04T06:19:19.630Z,5.10
2023-03-04T06:21:46.816Z,4.53
2023-03-04T06:24:14.047Z,4.50
2023-03-04T06:26:40.969Z,3.80
2023-03-04T06:29:09.684Z,4.13
2023-03-04T06:31:36.611Z,5.30
2023-03-04T06:34:03.770Z,3.80
2023-03-04T06:36:30.570Z,5.10
2023-03-04T06:38:57.573Z,4.57
2023-03-04T06:41:24.328Z,4.17
2023-03-04T06:43:54.304Z,4.73
2023-03-04T06:46:22.901Z,4.20
2023-03-04T06:48:49.823Z,4.70
2023-03-04T06:51:16.686Z,4.67
2023-03-04T06:53:43.769Z,4.10
2023-03-04T06:56:12.752Z,5.60
2023-03-04T06:58:39.925Z,4.40
2023-03-04T07:01:12.412Z,4.40
2023-03-04T07:03:41.428Z,5.23
2023-03-04T07:06:10.201Z,4.63
2023-03-04T07:08:37.760Z,4.57
2023-03-04T07:11:05.549Z,4.60
2023-03-04T07:13:34.727Z,4.00
2023-03-04T07:16:01.625Z,4.00
2023-03-04T07:18:28.438Z,4.10
2023-03-04T07:20:56.517Z,4.17
2023-03-04T07:23:23.645Z,3.93
2023-03-04T07:25:50.991Z,3.47
2023-03-04T07:28:18.253Z,4.37
2023-03-04T07:30:45.160Z,4.23
2023-03-04T07:33:12.711Z,3.37
2023-03-04T07:35:40.141Z,4.47
2023-03-04T07:38:08.780Z,4.27
2023-03-04T07:40:35.594Z,4.80
2023-03-04T07:43:02.836Z,4.27
2023-03-04T07:45:29.620Z,5.47
2023-03-04T07:47:58.925Z,4.43
2023-03-04T07:50:25.777Z,5.20
2023-03-04T07:52:53.739Z,4.57
2023-03-04T07:55:21.872Z,4.47
2023-03-04T07:57:48.831Z,5.27
2023-03-04T08:00:17.135Z,5.20
2023-03-04T08:02:44.401Z,4.10
2023-03-04T08:05:11.222Z,4.93
2023-03-04T08:07:38.464Z,4.57
2023-03-04T08:10:06.217Z,4.63
2023-03-04T08:12:35.131Z,5.50
2023-03-04T08:15:02.001Z,4.70
2023-03-04T08:17:29.832Z,5.43
2023-03-04T08:19:56.675Z,5.47
2023-03-04T08:22:23.823Z,4.77
2023-03-04T08:24:50.586Z,5.40
2023-03-04T08:27:17.783Z,5.73
2023-03-04T08:29:45.918Z,6.57
2023-03-04T08:32:13.133Z,6.77
2023-03-04T08:34:40.855Z,6.67
2023-03-04T08:37:07.983Z,6.50
2023-03-04T08:39:36.128Z,5.33
2023-03-04T08:42:03.675Z,5.60
2023-03-04T08:44:30.543Z,6.03
2023-03-04T08:46:59.039Z,6.63
2023-03-04T08:49:25.917Z,5.40
2023-03-04T08:51:53.114Z,5.13
2023-03-04T08:54:19.992Z,4.23
2023-03-04T08:56:47.468Z,4.37
2023-03-04T08:59:14.361Z,2.87
2023-03-04T09:01:41.560Z,3.37
2023-03-04T09:04:09.760Z,3.00
2023-03-04T09:06:36.943Z,3.23
2023-03-04T09:09:04.312Z,2.77
2023-03-04T09:11:32.115Z,3.17
2023-03-04T09:13:58.875Z,2.87
2023-03-04T09:16:26.155Z,3.00
2023-03-04T09:18:52.952Z,2.77
2023-03-04T09:21:21.097Z,2.83
2023-03-04T09:23:47.882Z,3.80
2023-03-04T09:26:17.704Z,3.50
2023-03-04T09:28:44.574Z,3.20
2023-03-04T09:31:12.725Z,3.50
2023-03-04T09:33:41.570Z,3.70
2023-03-04T09:36:09.689Z,3.53
2023-03-04T09:38:38.691Z,3.50
2023-03-04T09:41:09.625Z,3.90
2023-03-04T09:43:39.068Z,2.80
2023-03-04T09:46:11.633Z,2.20
2023-03-04T09:48:44.692Z,2.43
2023-03-04T09:51:20.095Z,2.23
2023-03-04T09:54:05.283Z,2.30
2023-03-04T09:56:34.329Z,2.90
2023-03-04T09:59:09.505Z,2.90
2023-03-04T10:01:42.793Z,2.70
2023-03-04T10:04:14.169Z,3.27
2023-03-04T10:06:42.689Z,2.97
2023-03-04T10:09:15.322Z,3.30
2023-03-04T10:11:45.990Z,2.93
2023-03-04T10:14:27.019Z,3.40
2023-03-04T10:16:59.075Z,2.60
2023-03-04T10:19:36.939Z,2.73
2023-03-04T10:22:17.073Z,2.60
2023-03-04T10:24:47.604Z,2.73
2023-03-04T10:27:19.955Z,3.00
2023-03-04T10:29:48.956Z,3.40
2023-03-04T10:32:17.928Z,7.63
2023-03-04T10:34:45.030Z,5.43
2023-03-04T10:37:12.448Z,4.97
2023-03-04T10:39:40.656Z,4.97
2023-03-04T10:42:26.798Z,5.53
2023-03-04T10:44:55.778Z,3.50
2023-03-04T10:47:25.622Z,4.40
2023-03-04T10:49:54.315Z,3.40
2023-03-04T10:52:29.905Z,3.67
2023-03-04T10:54:59.620Z,3.40
2023-03-04T10:57:35.340Z,3.10
2023-03-04T11:00:04.324Z,3.73
2023-03-04T11:02:32.649Z,4.03
2023-03-04T11:05:17.741Z,3.73
2023-03-04T11:07:55.617Z,3.43
2023-03-04T11:10:26.000Z,3.03
2023-03-04T11:13:01.726Z,3.17
2023-03-04T11:15:31.370Z,3.00
2023-03-04T11:18:03.661Z,3.03
2023-03-04T11:20:32.995Z,2.43
2023-03-04T11:23:05.085Z,3.07
2023-03-04T11:25:34.811Z,3.10
2023-03-04T11:28:09.878Z,3.40
2023-03-04T11:30:44.790Z,2.93
2023-03-04T11:33:22.499Z,3.20
2023-03-04T11:35:59.351Z,2.90
2023-03-04T11:38:33.781Z,2.87
2023-03-04T11:41:05.460Z,2.53
2023-03-04T11:43:36.807Z,2.10
2023-03-04T11:46:36.830Z,2.00
2023-03-04T11:49:18.642Z,2.20
2023-03-04T11:51:56.706Z,2.80
2023-03-04T11:54:34.479Z,1.60
2023-03-04T11:57:12.512Z,2.30
2023-03-04T12:00:01.636Z,1.93
2023-03-04T12:02:36.307Z,1.77
2023-03-04T12:05:21.544Z,2.13
2023-03-04T12:08:16.643Z,1.83
2023-03-04T12:10:49.381Z,2.00
2023-03-04T12:13:36.215Z,1.90
2023-03-04T12:16:18.452Z,2.20
2023-03-04T12:19:03.157Z,3.37
2023-03-04T12:21:48.308Z,2.67
2023-03-04T12:24:32.401Z,2.37
2023-03-04T12:27:05.388Z,2.17
2023-03-04T12:29:43.076Z,1.83
2023-03-04T12:32:18.681Z,1.67
2023-03-04T12:35:08.366Z,2.07
2023-03-04T12:37:56.641Z,1.93
2023-03-04T12:40:37.498Z,1.53
2023-03-04T12:43:19.683Z,4.00
2023-03-04T12:45:54.356Z,2.20
2023-03-04T12:48:31.640Z,2.77
2023-03-04T12:51:10.002Z,1.57
2023-03-04T12:53:43.601Z,1.50
2023-03-04T12:56:23.694Z,1.30
2023-03-04T12:58:51.403Z,1.80
2023-03-04T13:01:25.052Z,1.80
2023-03-04T13:03:59.656Z,1.47
2023-03-04T13:06:39.572Z,2.20
2023-03-04T13:09:18.933Z,1.70
2023-03-04T13:11:55.864Z,1.83
2023-03-04T13:14:26.350Z,1.93
2023-03-04T13:16:54.957Z,2.10
2023-03-04T13:19:51.190Z,2.00
2023-03-04T13:22:35.260Z,2.10
2023-03-04T13:25:33.665Z,2.20
2023-03-04T13:28:24.843Z,2.17
2023-03-04T13:31:21.725Z,2.27
2023-03-04T13:34:11.028Z,1.73
2023-03-04T13:37:00.313Z,2.27
2023-03-04T13:39:29.979Z,1.70
2023-03-04T13:41:57.393Z,2.03
2023-03-04T13:44:58.860Z,2.07
2023-03-04T13:47:45.781Z,2.70
2023-03-04T13:50:39.576Z,2.23
2023-03-04T13:53:39.881Z,2.10
2023-03-04T13:56:26.705Z,2.27
2023-03-04T13:59:16.351Z,2.37
2023-03-04T14:02:06.146Z,2.80
2023-03-04T14:04:35.246Z,2.50
2023-03-04T14:07:05.050Z,2.40
2023-03-04T14:09:34.573Z,2.37
2023-03-04T14:12:04.274Z,2.30
2023-03-04T14:14:37.645Z,2.53
2023-03-04T14:17:06.852Z,3.27
2023-03-04T14:19:38.743Z,2.30
2023-03-04T14:22:21.175Z,2.23
2023-03-04T14:24:57.969Z,2.80
2023-03-04T14:27:25.086Z,2.27
2023-03-04T14:29:56.007Z,2.60
2023-03-04T14:32:24.000Z,3.37
2023-03-04T14:34:53.015Z,2.77
2023-03-04T14:37:22.067Z,1.77
2023-03-04T14:39:52.161Z,1.77
2023-03-04T14:42:23.804Z,2.20
2023-03-04T14:44:51.795Z,1.80
2023-03-04T14:47:23.959Z,1.87
2023-03-04T14:49:51.244Z,2.30
2023-03-04T14:52:33.384Z,2.40
2023-03-04T14:55:02.202Z,2.33
2023-03-04T14:57:34.402Z,2.50
2023-03-04T15:00:16.489Z,2.53
2023-03-04T15:02:44.637Z,3.77
2023-03-04T15:05:18.278Z,3.20
2023-03-04T15:07:51.825Z,3.47
2023-03-04T15:10:22.768Z,2.50
2023-03-04T15:12:54.261Z,2.83
2023-03-04T15:15:41.524Z,2.43
2023-03-04T15:18:23.235Z,2.80
2023-03-04T15:20:58.443Z,3.17
2023-03-04T15:23:26.173Z,2.90
2023-03-04T15:25:54.738Z,2.97
2023-03-04T15:28:24.762Z,3.03
2023-03-04T15:30:52.828Z,2.63
2023-03-04T15:33:21.359Z,2.80
2023-03-04T15:35:53.420Z,3.27
2023-03-04T15:38:21.222Z,2.97
2023-03-04T15:40:48.416Z,2.53
2023-03-04T15:43:18.002Z,3.50
2023-03-04T15:45:48.132Z,3.87
2023-03-04T15:48:17.743Z,3.70
2023-03-04T15:50:47.932Z,3.50
2023-03-04T15:53:17.579Z,3.97
2023-03-04T15:55:45.767Z,3.73
2023-03-04T15:58:14.096Z,3.37
2023-03-04T16:00:41.006Z,3.53
2023-03-04T16:03:15.341Z,3.70
2023-03-04T16:05:43.699Z,3.40
2023-03-04T16:08:13.426Z,3.90
2023-03-04T16:10:40.572Z,2.73
2023-03-04T16:13:13.649Z,3.50
2023-03-04T16:15:40.781Z,5.50
2023-03-04T16:18:08.767Z,4.57
2023-03-04T16:20:38.061Z,4.87
2023-03-04T16:23:06.174Z,3.93
2023-03-04T16:25:33.146Z,4.23
2023-03-04T16:28:03.266Z,4.73
2023-03-04T16:30:31.012Z,3.87
2023-03-04T16:32:58.529Z,4.13
2023-03-04T16:35:27.064Z,3.17
2023-03-04T16:37:56.275Z,4.13
2023-03-04T16:40:26.814Z,4.03
2023-03-04T16:42:54.324Z,4.17
2023-03-04T16:45:23.326Z,3.43
2023-03-04T16:47:50.829Z,3.07
2023-03-04T16:50:19.951Z,3.67
2023-03-04T16:52:48.885Z,3.20
2023-03-04T16:55:20.053Z,3.43
2023-03-04T16:57:48.059Z,3.47
2023-03-04T17:00:17.426Z,2.83
2023-03-04T17:02:44.335Z,2.43
2023-03-04T17:05:17.068Z,3.83
2023-03-04T17:07:43.952Z,2.63
2023-03-04T17:10:13.260Z,3.33
2023-03-04T17:12:41.946Z,3.73
2023-03-04T17:15:11.863Z,2.83
2023-03-04T17:17:39.119Z,2.87
2023-03-04T17:20:07.435Z,3.90
2023-03-04T17:22:35.063Z,3.73
2023-03-04T17:25:05.126Z,3.20
2023-03-04T17:27:32.274Z,3.00
2023-03-04T17:30:00.752Z,3.57
2023-03-04T17:32:28.487Z,3.43
2023-03-04T17:34:58.551Z,3.07
2023-03-04T17:37:25.884Z,3.80
2023-03-04T17:39:53.182Z,5.30
2023-03-04T17:42:21.189Z,6.83
2023-03-04T17:44:48.189Z,3.00
2023-03-04T17:47:17.656Z,2.60
2023-03-04T17:49:44.454Z,2.90
2023-03-04T17:52:12.000Z,3.07
2023-03-04T17:54:39.021Z,2.80
2023-03-04T17:57:06.579Z,4.40
2023-03-04T17:59:33.794Z,3.00
2023-03-04T18:02:00.672Z,2.63
2023-03-04T18:04:28.895Z,2.27
2023-03-04T18:06:55.844Z,2.90
2023-03-04T18:09:22.896Z,3.07
2023-03-04T18:11:49.810Z,3.23
2023-03-04T18:14:16.675Z,3.10
2023-03-04T18:16:43.537Z,2.90
2023-03-04T18:19:11.771Z,3.50
2023-03-04T18:21:39.922Z,3.50
2023-03-04T18:24:08.465Z,2.93
2023-03-04T18:26:35.551Z,3.00
2023-03-04T18:29:02.383Z,3.73
2023-03-04T18:31:32.311Z,4.13
2023-03-04T18:34:00.426Z,3.07
2023-03-04T18:36:27.393Z,3.07
2023-03-04T18:38:57.199Z,3.30
2023-03-04T18:41:27.544Z,2.93
2023-03-04T18:43:55.233Z,3.63
2023-03-04T18:46:30.775Z,9.43
2023-03-04T18:49:02.003Z,7.07
2023-03-04T18:51:29.122Z,5.17
2023-03-04T18:53:57.791Z,4.17
2023-03-04T18:56:34.500Z,8.57
2023-03-04T18:59:01.473Z,3.17
2023-03-04T19:01:28.363Z,4.13
2023-03-04T19:03:59.470Z,2.83
2023-03-04T19:06:26.396Z,2.53
2023-03-04T19:08:55.552Z,3.63
2023-03-04T19:11:25.073Z,3.00
2023-03-04T19:13:52.409Z,2.63
2023-03-04T19:16:19.361Z,3.50
2023-03-04T19:18:47.112Z,4.23
2023-03-04T19:21:13.996Z,3.27
2023-03-04T19:23:41.117Z,2.80
2023-03-04T19:26:08.502Z,2.90
2023-03-04T19:28:36.882Z,2.93
2023-03-04T19:31:08.791Z,3.33
2023-03-04T19:33:36.599Z,3.10
2023-03-04T19:36:04.822Z,5.07
2023-03-04T19:38:32.966Z,4.33
2023-03-04T19:41:07.131Z,4.13
2023-03-04T19:43:36.979Z,3.43
2023-03-04T19:46:06.070Z,2.83
2023-03-04T19:48:33.566Z,3.90
2023-03-04T19:51:00.493Z,3.33
2023-03-04T19:53:27.551Z,3.07
2023-03-04T19:55:54.415Z,3.03
2023-03-04T19:58:21.758Z,3.57
2023-03-04T20:00:50.144Z,2.57
2023-03-04T20:03:18.407Z,2.80
2023-03-04T20:05:46.411Z,3.50
2023-03-04T20:08:13.447Z,3.23
2023-03-04T20:10:41.128Z,3.03
2023-03-04T20:13:09.455Z,4.00
2023-03-04T20:15:37.482Z,3.17
2023-03-04T20:18:04.964Z,3.70
2023-03-04T20:20:33.578Z,4.40
2023-03-04T20:23:00.657Z,2.90
2023-03-04T20:25:31.244Z,3.23
2023-03-04T20:27:58.812Z,4.17
2023-03-04T20:30:25.630Z,4.47
2023-03-04T20:32:55.487Z,3.53
2023-03-04T20:35:22.456Z,8.70
2023-03-04T20:37:51.603Z,3.13
2023-03-04T20:40:19.019Z,2.53
2023-03-04T20:42:47.332Z,2.87
2023-03-04T20:45:14.649Z,3.37
2023-03-04T20:47:42.102Z,2.77
2023-03-04T20:50:13.264Z,1.93
2023-03-04T20:52:40.688Z,2.37
2023-03-04T20:55:10.133Z,2.10
2023-03-04T20:57:37.053Z,2.57
2023-03-04T21:00:05.522Z,2.20
2023-03-04T21:02:32.375Z,1.80
2023-03-04T21:05:01.751Z,1.93
2023-03-04T21:07:28.865Z,2.63
2023-03-04T21:09:55.709Z,2.60
2023-03-04T21:12:24.436Z,2.87
2023-03-04T21:14:51.857Z,3.17
2023-03-04T21:17:22.086Z,2.83
2023-03-04T21:19:49.065Z,3.00
2023-03-04T21:22:19.639Z,1.93
2023-03-04T21:24:47.800Z,2.50
2023-03-04T21:27:17.115Z,2.67
2023-03-04T21:29:45.497Z,3.70
2023-03-04T21:32:23.748Z,3.30
2023-03-04T21:34:52.581Z,3.80
2023-03-04T21:37:20.230Z,3.17
2023-03-04T21:39:47.199Z,2.67
2023-03-04T21:42:14.264Z,2.60
2023-03-04T21:44:50.074Z,2.97
2023-03-04T21:47:19.415Z,2.00
2023-03-04T21:49:46.688Z,2.80
2023-03-04T21:52:14.061Z,3.07
2023-03-04T21:54:40.963Z,3.50
2023-03-04T21:57:08.200Z,2.80
2023-03-04T21:59:35.028Z,3.07
2023-03-04T22:02:02.522Z,3.67
2023-03-04T22:04:30.878Z,2.97
2023-03-04T22:06:58.176Z,2.80
2023-03-04T22:09:25.240Z,3.00
2023-03-04T22:11:52.406Z,3.17
2023-03-04T22:14:19.296Z,3.43
2023-03-04T22:16:55.359Z,2.90
2023-03-04T22:19:23.212Z,3.43
2023-03-04T22:21:52.338Z,3.70
2023-03-04T22:24:19.406Z,3.37
2023-03-04T22:26:46.892Z,4.77
2023-03-04T22:29:13.743Z,4.10
2023-03-04T22:31:40.931Z,4.30
2023-03-04T22:34:10.316Z,4.40
2023-03-04T22:36:39.567Z,3.67
2023-03-04T22:39:09.675Z,4.17
2023-03-04T22:41:37.325Z,3.77
2023-03-04T22:44:06.019Z,4.47
2023-03-04T22:46:35.187Z,4.30
2023-03-04T22:49:09.445Z,4.20
2023-03-04T22:51:37.287Z,4.60
2023-03-04T22:54:04.355Z,4.37
2023-03-04T22:56:33.228Z,4.80
2023-03-04T22:59:00.193Z,4.57
2023-03-04T23:01:27.358Z,4.47
2023-03-04T23:03:54.284Z,4.70
2023-03-04T23:06:23.013Z,4.83
2023-03-04T23:08:51.063Z,5.00
2023-03-04T23:11:21.157Z,4.67
2023-03-04T23:13:50.310Z,4.90
2023-03-04T23:16:18.136Z,5.20
2023-03-04T23:18:49.023Z,5.73
2023-03-04T23:21:18.383Z,5.37
2023-03-04T23:23:46.664Z,5.47
2023-03-04T23:26:15.638Z,5.10
2023-03-04T23:28:42.618Z,4.90
2023-03-04T23:31:11.202Z,5.73
2023-03-04T23:33:39.462Z,5.50
2023-03-04T23:36:10.038Z,4.83
2023-03-04T23:38:36.837Z,5.40
2023-03-04T23:41:03.917Z,5.37
2023-03-04T23:43:31.835Z,5.63
2023-03-04T23:45:59.075Z,5.53
2023-03-04T23:48:27.237Z,5.50
2023-03-04T23:50:54.501Z,5.67
2023-03-04T23:53:21.395Z,5.67
2023-03-04T23:55:48.544Z,4.83
2023-03-04T23:58:15.730Z,4.63
